sensor_id;sensor_type;location;lat;lon;timestamp;pressure;altitude;pressure_sealevel;temperature;humidity
74310;BME280;62722;51.142;17.052;2022-10-26T00:00:41;100737.47;;;9.33;90.50
74310;BME280;62722;51.142;17.052;2022-10-26T00:03:28;100742.91;;;9.30;90.81
74310;BME280;62722;51.142;17.052;2022-10-26T00:06:05;100730.50;;;9.32;90.62
74310;BME280;62722;51.142;17.052;2022-10-26T00:08:33;100744.00;;;9.26;90.43
74310;BME280;62722;51.142;17.052;2022-10-26T00:11:00;100742.38;;;9.23;90.45
74310;BME280;62722;51.142;17.052;2022-10-26T00:13:27;100741.84;;;9.17;90.20
74310;BME280;62722;51.142;17.052;2022-10-26T00:15:55;100743.03;;;9.11;90.06
74310;BME280;62722;51.142;17.052;2022-10-26T00:18:22;100752.22;;;9.03;90.55
74310;BME280;62722;51.142;17.052;2022-10-26T00:20:50;100754.28;;;8.98;91.03
74310;BME280;62722;51.142;17.052;2022-10-26T00:23:18;100749.00;;;8.98;91.22
74310;BME280;62722;51.142;17.052;2022-10-26T00:25:53;100755.66;;;9.05;91.17
74310;BME280;62722;51.142;17.052;2022-10-26T00:28:20;100761.78;;;9.05;90.91
74310;BME280;62722;51.142;17.052;2022-10-26T00:30:47;100762.59;;;9.06;90.44
74310;BME280;62722;51.142;17.052;2022-10-26T00:33:14;100761.78;;;9.05;90.55
74310;BME280;62722;51.142;17.052;2022-10-26T00:35:41;100768.03;;;9.03;90.16
74310;BME280;62722;51.142;17.052;2022-10-26T00:38:08;100765.22;;;9.06;90.52
74310;BME280;62722;51.142;17.052;2022-10-26T00:40:37;100771.69;;;9.00;90.26
74310;BME280;62722;51.142;17.052;2022-10-26T00:43:05;100766.81;;;8.93;90.22
74310;BME280;62722;51.142;17.052;2022-10-26T00:45:35;100768.81;;;8.88;90.26
74310;BME280;62722;51.142;17.052;2022-10-26T00:48:06;100763.88;;;8.82;89.98
74310;BME280;62722;51.142;17.052;2022-10-26T00:50:36;100766.03;;;8.73;89.86
74310;BME280;62722;51.142;17.052;2022-10-26T00:53:05;100761.56;;;8.75;90.82
74310;BME280;62722;51.142;17.052;2022-10-26T00:55:39;100769.50;;;8.74;90.06
74310;BME280;62722;51.142;17.052;2022-10-26T00:58:09;100767.25;;;8.66;90.39
74310;BME280;62722;51.142;17.052;2022-10-26T01:00:38;100763.38;;;8.56;90.28
74310;BME280;62722;51.142;17.052;2022-10-26T01:03:07;100761.88;;;8.51;90.58
74310;BME280;62722;51.142;17.052;2022-10-26T01:05:37;100759.47;;;8.46;91.20
74310;BME280;62722;51.142;17.052;2022-10-26T01:08:06;100750.81;;;8.44;91.10
74310;BME280;62722;51.142;17.052;2022-10-26T01:10:35;100752.16;;;8.53;91.49
74310;BME280;62722;51.142;17.052;2022-10-26T01:13:05;100752.91;;;8.55;91.01
74310;BME280;62722;51.142;17.052;2022-10-26T01:15:38;100756.72;;;8.49;90.95
74310;BME280;62722;51.142;17.052;2022-10-26T01:18:12;100749.75;;;8.65;90.37
74310;BME280;62722;51.142;17.052;2022-10-26T01:21:15;100753.72;;;8.74;89.99
74310;BME280;62722;51.142;17.052;2022-10-26T01:24:03;100761.63;;;8.74;89.04
74310;BME280;62722;51.142;17.052;2022-10-26T01:26:51;100760.97;;;8.69;89.29
74310;BME280;62722;51.142;17.052;2022-10-26T01:29:45;100763.00;;;8.64;89.15
74310;BME280;62722;51.142;17.052;2022-10-26T01:32:21;100759.75;;;8.59;89.42
74310;BME280;62722;51.142;17.052;2022-10-26T01:34:54;100756.25;;;8.58;90.18
74310;BME280;62722;51.142;17.052;2022-10-26T01:37:27;100755.94;;;8.47;89.53
74310;BME280;62722;51.142;17.052;2022-10-26T01:40:01;100753.25;;;8.49;89.92
74310;BME280;62722;51.142;17.052;2022-10-26T01:42:34;100746.72;;;8.39;89.80
74310;BME280;62722;51.142;17.052;2022-10-26T01:45:06;100746.16;;;8.32;90.08
74310;BME280;62722;51.142;17.052;2022-10-26T01:47:37;100742.88;;;8.27;90.60
74310;BME280;62722;51.142;17.052;2022-10-26T01:50:06;100746.44;;;8.26;90.67
74310;BME280;62722;51.142;17.052;2022-10-26T01:52:34;100752.44;;;8.28;90.75
74310;BME280;62722;51.142;17.052;2022-10-26T01:55:04;100748.13;;;8.27;90.55
74310;BME280;62722;51.142;17.052;2022-10-26T01:57:34;100755.00;;;8.31;90.48
74310;BME280;62722;51.142;17.052;2022-10-26T02:00:05;100757.69;;;8.29;90.49
74310;BME280;62722;51.142;17.052;2022-10-26T02:02:59;100749.22;;;8.23;90.04
74310;BME280;62722;51.142;17.052;2022-10-26T02:05:54;100742.75;;;8.11;90.06
74310;BME280;62722;51.142;17.052;2022-10-26T02:08:38;100741.25;;;8.06;91.27
74310;BME280;62722;51.142;17.052;2022-10-26T02:11:14;100742.22;;;8.05;91.55
74310;BME280;62722;51.142;17.052;2022-10-26T02:13:52;100742.22;;;8.05;91.32
74310;BME280;62722;51.142;17.052;2022-10-26T02:16:24;100742.06;;;8.08;91.23
74310;BME280;62722;51.142;17.052;2022-10-26T02:19:00;100735.09;;;8.07;91.26
74310;BME280;62722;51.142;17.052;2022-10-26T02:21:33;100738.50;;;8.09;91.19
74310;BME280;62722;51.142;17.052;2022-10-26T02:24:02;100739.91;;;8.16;91.37
74310;BME280;62722;51.142;17.052;2022-10-26T02:26:31;100737.50;;;8.11;90.79
74310;BME280;62722;51.142;17.052;2022-10-26T02:29:02;100741.53;;;8.18;90.70
74310;BME280;62722;51.142;17.052;2022-10-26T02:31:31;100738.47;;;8.27;89.91
74310;BME280;62722;51.142;17.052;2022-10-26T02:34:05;100742.19;;;8.23;89.77
74310;BME280;62722;51.142;17.052;2022-10-26T02:36:35;100740.78;;;8.16;89.45
74310;BME280;62722;51.142;17.052;2022-10-26T02:39:05;100732.31;;;8.10;90.07
74310;BME280;62722;51.142;17.052;2022-10-26T02:41:33;100738.50;;;8.09;89.79
74310;BME280;62722;51.142;17.052;2022-10-26T02:44:07;100740.97;;;8.12;90.39
74310;BME280;62722;51.142;17.052;2022-10-26T02:46:38;100742.59;;;8.14;89.83
74310;BME280;62722;51.142;17.052;2022-10-26T02:49:07;100741.91;;;8.11;89.59
74310;BME280;62722;51.142;17.052;2022-10-26T02:51:38;100748.06;;;8.10;89.97
74310;BME280;62722;51.142;17.052;2022-10-26T02:54:13;100747.31;;;8.08;89.76
74310;BME280;62722;51.142;17.052;2022-10-26T02:56:46;100745.59;;;8.07;89.88
74310;BME280;62722;51.142;17.052;2022-10-26T02:59:15;100757.13;;;8.04;89.63
74310;BME280;62722;51.142;17.052;2022-10-26T03:01:45;100753.22;;;7.94;89.78
74310;BME280;62722;51.142;17.052;2022-10-26T03:04:14;100751.72;;;7.89;90.50
74310;BME280;62722;51.142;17.052;2022-10-26T03:06:41;100754.91;;;7.95;90.25
74310;BME280;62722;51.142;17.052;2022-10-26T03:09:09;100753.13;;;7.96;89.76
74310;BME280;62722;51.142;17.052;2022-10-26T03:11:38;100750.66;;;7.93;89.79
74310;BME280;62722;51.142;17.052;2022-10-26T03:14:08;100745.56;;;7.90;89.97
74310;BME280;62722;51.142;17.052;2022-10-26T03:16:37;100762.25;;;7.89;89.38
74310;BME280;62722;51.142;17.052;2022-10-26T03:19:06;100762.38;;;7.86;89.46
74310;BME280;62722;51.142;17.052;2022-10-26T03:21:37;100759.97;;;7.81;89.57
74310;BME280;62722;51.142;17.052;2022-10-26T03:24:08;100761.81;;;7.79;89.77
74310;BME280;62722;51.142;17.052;2022-10-26T03:26:37;100768.19;;;7.73;89.55
74310;BME280;62722;51.142;17.052;2022-10-26T03:29:06;100770.25;;;7.67;90.02
74310;BME280;62722;51.142;17.052;2022-10-26T03:31:34;100775.56;;;7.65;90.61
74310;BME280;62722;51.142;17.052;2022-10-26T03:34:02;100773.22;;;7.59;89.31
74310;BME280;62722;51.142;17.052;2022-10-26T03:36:30;100771.75;;;7.54;89.95
74310;BME280;62722;51.142;17.052;2022-10-26T03:38:59;100775.34;;;7.51;90.29
74310;BME280;62722;51.142;17.052;2022-10-26T03:41:26;100777.25;;;7.48;91.03
74310;BME280;62722;51.142;17.052;2022-10-26T03:43:53;100772.00;;;7.48;91.28
74310;BME280;62722;51.142;17.052;2022-10-26T03:46:20;100775.69;;;7.44;90.92
74310;BME280;62722;51.142;17.052;2022-10-26T03:48:48;100770.56;;;7.41;91.55
74310;BME280;62722;51.142;17.052;2022-10-26T03:51:15;100770.44;;;7.44;91.01
74310;BME280;62722;51.142;17.052;2022-10-26T03:53:42;100773.16;;;7.42;90.73
74310;BME280;62722;51.142;17.052;2022-10-26T03:56:10;100778.44;;;7.41;91.00
74310;BME280;62722;51.142;17.052;2022-10-26T03:58:38;100779.59;;;7.35;90.60
74310;BME280;62722;51.142;17.052;2022-10-26T04:01:05;100777.22;;;7.29;90.67
74310;BME280;62722;51.142;17.052;2022-10-26T04:03:32;100772.25;;;7.23;90.49
74310;BME280;62722;51.142;17.052;2022-10-26T04:05:59;100774.06;;;7.21;90.99
74310;BME280;62722;51.142;17.052;2022-10-26T04:08:27;100769.88;;;7.17;90.79
74310;BME280;62722;51.142;17.052;2022-10-26T04:10:54;100767.38;;;7.14;90.87
74310;BME280;62722;51.142;17.052;2022-10-26T04:13:22;100768.22;;;7.14;91.42
74310;BME280;62722;51.142;17.052;2022-10-26T04:15:49;100767.38;;;7.14;91.07
74310;BME280;62722;51.142;17.052;2022-10-26T04:18:17;100771.78;;;7.13;90.57
74310;BME280;62722;51.142;17.052;2022-10-26T04:20:44;100769.22;;;7.12;91.02
74310;BME280;62722;51.142;17.052;2022-10-26T04:23:12;100777.88;;;7.14;91.22
74310;BME280;62722;51.142;17.052;2022-10-26T04:25:40;100783.34;;;7.09;90.91
74310;BME280;62722;51.142;17.052;2022-10-26T04:28:09;100779.19;;;7.04;90.88
74310;BME280;62722;51.142;17.052;2022-10-26T04:30:38;100781.25;;;6.97;91.28
74310;BME280;62722;51.142;17.052;2022-10-26T04:33:06;100779.00;;;6.88;91.45
74310;BME280;62722;51.142;17.052;2022-10-26T04:35:33;100777.63;;;6.79;92.23
74310;BME280;62722;51.142;17.052;2022-10-26T04:38:02;100779.56;;;6.74;92.70
74310;BME280;62722;51.142;17.052;2022-10-26T04:40:30;100775.31;;;6.72;92.82
74310;BME280;62722;51.142;17.052;2022-10-26T04:42:58;100781.53;;;6.69;92.85
74310;BME280;62722;51.142;17.052;2022-10-26T04:45:25;100782.16;;;6.76;93.19
74310;BME280;62722;51.142;17.052;2022-10-26T04:48:01;100782.19;;;6.74;92.44
74310;BME280;62722;51.142;17.052;2022-10-26T04:50:29;100781.22;;;6.77;91.63
74310;BME280;62722;51.142;17.052;2022-10-26T04:52:56;100787.25;;;6.79;92.00
74310;BME280;62722;51.142;17.052;2022-10-26T04:55:24;100767.13;;;6.79;91.44
74310;BME280;62722;51.142;17.052;2022-10-26T04:57:51;100775.28;;;6.94;92.05
74310;BME280;62722;51.142;17.052;2022-10-26T05:00:18;100776.56;;;7.04;91.65
74310;BME280;62722;51.142;17.052;2022-10-26T05:02:46;100787.75;;;7.09;90.56
74310;BME280;62722;51.142;17.052;2022-10-26T05:05:15;100787.75;;;7.09;90.14
74310;BME280;62722;51.142;17.052;2022-10-26T05:07:43;100789.38;;;7.11;90.32
74310;BME280;62722;51.142;17.052;2022-10-26T05:10:10;100787.53;;;7.13;90.19
74310;BME280;62722;51.142;17.052;2022-10-26T05:12:38;100790.94;;;7.15;90.03
74310;BME280;62722;51.142;17.052;2022-10-26T05:15:06;100786.47;;;7.17;90.02
74310;BME280;62722;51.142;17.052;2022-10-26T05:17:34;100804.78;;;7.19;89.50
74310;BME280;62722;51.142;17.052;2022-10-26T05:20:01;100799.53;;;7.19;88.68
74310;BME280;62722;51.142;17.052;2022-10-26T05:22:32;100797.19;;;7.13;89.18
74310;BME280;62722;51.142;17.052;2022-10-26T05:24:59;100796.38;;;7.11;89.24
74310;BME280;62722;51.142;17.052;2022-10-26T05:27:26;100802.31;;;7.16;88.72
74310;BME280;62722;51.142;17.052;2022-10-26T05:29:53;100804.94;;;7.16;88.20
74310;BME280;62722;51.142;17.052;2022-10-26T05:32:20;100800.59;;;7.15;88.82
74310;BME280;62722;51.142;17.052;2022-10-26T05:34:48;100806.13;;;7.09;89.10
74310;BME280;62722;51.142;17.052;2022-10-26T05:37:15;100806.13;;;7.09;88.96
74310;BME280;62722;51.142;17.052;2022-10-26T05:39:44;100814.19;;;7.04;89.04
74310;BME280;62722;51.142;17.052;2022-10-26T05:42:11;100821.50;;;6.96;89.37
74310;BME280;62722;51.142;17.052;2022-10-26T05:44:38;100816.66;;;6.87;89.60
74310;BME280;62722;51.142;17.052;2022-10-26T05:47:05;100813.19;;;6.87;90.52
74310;BME280;62722;51.142;17.052;2022-10-26T05:49:33;100827.75;;;6.94;90.29
74310;BME280;62722;51.142;17.052;2022-10-26T05:52:00;100817.13;;;6.97;89.56
74310;BME280;62722;51.142;17.052;2022-10-26T05:54:27;100820.06;;;6.89;90.20
74310;BME280;62722;51.142;17.052;2022-10-26T05:56:56;100828.31;;;6.80;90.96
74310;BME280;62722;51.142;17.052;2022-10-26T05:59:24;100813.63;;;6.76;91.74
74310;BME280;62722;51.142;17.052;2022-10-26T06:01:59;100823.41;;;6.72;92.11
74310;BME280;62722;51.142;17.052;2022-10-26T06:04:34;100823.41;;;6.72;92.15
74310;BME280;62722;51.142;17.052;2022-10-26T06:07:09;100825.75;;;6.78;92.47
74310;BME280;62722;51.142;17.052;2022-10-26T06:09:37;100825.16;;;6.72;91.80
74310;BME280;62722;51.142;17.052;2022-10-26T06:12:07;100826.13;;;6.69;92.52
74310;BME280;62722;51.142;17.052;2022-10-26T06:14:35;100832.94;;;6.73;92.96
74310;BME280;62722;51.142;17.052;2022-10-26T06:17:17;100843.94;;;6.83;93.03
74310;BME280;62722;51.142;17.052;2022-10-26T06:20:04;100844.84;;;6.82;92.85
74310;BME280;62722;51.142;17.052;2022-10-26T06:22:43;100838.16;;;6.75;92.93
74310;BME280;62722;51.142;17.052;2022-10-26T06:25:23;100838.75;;;6.81;93.81
74310;BME280;62722;51.142;17.052;2022-10-26T06:28:02;100836.72;;;6.88;93.56
74310;BME280;62722;51.142;17.052;2022-10-26T06:30:31;100847.63;;;6.99;94.24
74310;BME280;62722;51.142;17.052;2022-10-26T06:32:58;100842.59;;;7.15;93.35
74310;BME280;62722;51.142;17.052;2022-10-26T06:35:34;100842.06;;;7.27;92.80
74310;BME280;62722;51.142;17.052;2022-10-26T06:38:07;100845.97;;;7.39;92.69
74310;BME280;62722;51.142;17.052;2022-10-26T06:40:39;100853.03;;;7.37;92.03
74310;BME280;62722;51.142;17.052;2022-10-26T06:43:12;100849.16;;;7.45;92.36
74310;BME280;62722;51.142;17.052;2022-10-26T06:45:40;100852.69;;;7.44;92.44
74310;BME280;62722;51.142;17.052;2022-10-26T06:48:15;100853.50;;;7.46;92.56
74310;BME280;62722;51.142;17.052;2022-10-26T06:50:50;100849.03;;;7.48;93.69
74310;BME280;62722;51.142;17.052;2022-10-26T06:53:22;100849.94;;;7.47;94.60
74310;BME280;62722;51.142;17.052;2022-10-26T06:55:54;100854.34;;;7.47;95.17
74310;BME280;62722;51.142;17.052;2022-10-26T06:58:27;100854.13;;;7.51;95.55
74310;BME280;62722;51.142;17.052;2022-10-26T07:00:55;100854.81;;;7.56;96.01
74310;BME280;62722;51.142;17.052;2022-10-26T07:03:22;100852.88;;;7.60;95.88
74310;BME280;62722;51.142;17.052;2022-10-26T07:05:50;100853.47;;;7.66;95.83
74310;BME280;62722;51.142;17.052;2022-10-26T07:08:17;100855.81;;;7.72;95.93
74310;BME280;62722;51.142;17.052;2022-10-26T07:10:45;100852.78;;;7.81;96.18
74310;BME280;62722;51.142;17.052;2022-10-26T07:13:13;100853.44;;;7.87;96.29
74310;BME280;62722;51.142;17.052;2022-10-26T07:15:41;100862.75;;;7.94;96.36
74310;BME280;62722;51.142;17.052;2022-10-26T07:18:09;100846.69;;;8.00;96.38
74310;BME280;62722;51.142;17.052;2022-10-26T07:20:37;100856.00;;;8.07;96.88
74310;BME280;62722;51.142;17.052;2022-10-26T07:23:06;100853.94;;;8.13;96.95
74310;BME280;62722;51.142;17.052;2022-10-26T07:25:35;100863.03;;;8.25;97.10
74310;BME280;62722;51.142;17.052;2022-10-26T07:28:05;100856.53;;;8.34;96.61
74310;BME280;62722;51.142;17.052;2022-10-26T07:30:34;100856.25;;;8.40;96.40
74310;BME280;62722;51.142;17.052;2022-10-26T07:33:05;100854.31;;;8.43;95.96
74310;BME280;62722;51.142;17.052;2022-10-26T07:35:32;100859.31;;;8.49;96.10
74310;BME280;62722;51.142;17.052;2022-10-26T07:38:00;100861.69;;;8.54;96.04
74310;BME280;62722;51.142;17.052;2022-10-26T07:40:28;100858.72;;;8.61;96.10
74310;BME280;62722;51.142;17.052;2022-10-26T07:42:56;100866.31;;;8.67;96.02
74310;BME280;62722;51.142;17.052;2022-10-26T07:45:24;100869.50;;;8.74;95.53
74310;BME280;62722;51.142;17.052;2022-10-26T07:47:51;100858.78;;;8.78;95.78
74310;BME280;62722;51.142;17.052;2022-10-26T07:50:20;100862.88;;;8.84;95.85
74310;BME280;62722;51.142;17.052;2022-10-26T07:52:47;100861.63;;;8.91;96.05
74310;BME280;62722;51.142;17.052;2022-10-26T07:55:14;100863.19;;;8.95;95.46
74310;BME280;62722;51.142;17.052;2022-10-26T07:57:41;100855.22;;;8.97;95.67
74310;BME280;62722;51.142;17.052;2022-10-26T08:00:09;100865.28;;;9.06;95.62
74310;BME280;62722;51.142;17.052;2022-10-26T08:02:37;100876.25;;;9.15;95.82
74310;BME280;62722;51.142;17.052;2022-10-26T08:05:05;100866.19;;;9.23;95.46
74310;BME280;62722;51.142;17.052;2022-10-26T08:07:39;100860.53;;;9.31;95.83
74310;BME280;62722;51.142;17.052;2022-10-26T08:10:07;100865.13;;;9.43;95.49
74310;BME280;62722;51.142;17.052;2022-10-26T08:12:35;100860.16;;;9.54;94.85
74310;BME280;62722;51.142;17.052;2022-10-26T08:15:02;100867.44;;;9.66;95.02
74310;BME280;62722;51.142;17.052;2022-10-26T08:17:29;100869.69;;;9.74;95.18
74310;BME280;62722;51.142;17.052;2022-10-26T08:19:56;100863.09;;;9.83;94.05
74310;BME280;62722;51.142;17.052;2022-10-26T08:22:24;100871.59;;;9.88;94.26
74310;BME280;62722;51.142;17.052;2022-10-26T08:24:52;100866.94;;;9.93;94.50
74310;BME280;62722;51.142;17.052;2022-10-26T08:27:19;100863.03;;;10.00;94.29
74310;BME280;62722;51.142;17.052;2022-10-26T08:29:46;100862.53;;;10.09;94.69
74310;BME280;62722;51.142;17.052;2022-10-26T08:32:14;100863.84;;;10.17;93.99
74310;BME280;62722;51.142;17.052;2022-10-26T08:34:41;100861.16;;;10.19;93.56
74310;BME280;62722;51.142;17.052;2022-10-26T08:37:09;100857.72;;;10.17;93.51
74310;BME280;62722;51.142;17.052;2022-10-26T08:39:36;100859.44;;;10.18;94.02
74310;BME280;62722;51.142;17.052;2022-10-26T08:42:10;100866.59;;;10.16;94.34
74310;BME280;62722;51.142;17.052;2022-10-26T08:44:42;100870.50;;;10.24;94.33
74310;BME280;62722;51.142;17.052;2022-10-26T08:47:14;100863.03;;;10.33;94.30
74310;BME280;62722;51.142;17.052;2022-10-26T08:49:47;100859.28;;;10.37;94.38
74310;BME280;62722;51.142;17.052;2022-10-26T08:52:19;100862.41;;;10.43;94.51
74310;BME280;62722;51.142;17.052;2022-10-26T08:54:50;100866.59;;;10.63;93.92
74310;BME280;62722;51.142;17.052;2022-10-26T08:57:22;100862.41;;;10.74;93.41
74310;BME280;62722;51.142;17.052;2022-10-26T08:59:56;100851.69;;;10.78;93.18
74310;BME280;62722;51.142;17.052;2022-10-26T09:02:25;100869.56;;;10.88;92.84
74310;BME280;62722;51.142;17.052;2022-10-26T09:04:53;100862.47;;;11.04;92.50
74310;BME280;62722;51.142;17.052;2022-10-26T09:07:34;100866.69;;;11.07;92.05
74310;BME280;62722;51.142;17.052;2022-10-26T09:10:10;100860.72;;;11.19;91.82
74310;BME280;62722;51.142;17.052;2022-10-26T09:12:47;100859.81;;;11.34;91.67
74310;BME280;62722;51.142;17.052;2022-10-26T09:15:23;100860.97;;;11.44;90.92
74310;BME280;62722;51.142;17.052;2022-10-26T09:17:57;100868.97;;;11.43;90.58
74310;BME280;62722;51.142;17.052;2022-10-26T09:20:47;100864.81;;;11.39;91.28
74310;BME280;62722;51.142;17.052;2022-10-26T09:23:25;100875.38;;;11.39;91.61
74310;BME280;62722;51.142;17.052;2022-10-26T09:25:57;100868.97;;;11.43;91.00
74310;BME280;62722;51.142;17.052;2022-10-26T09:28:30;100869.75;;;11.45;91.02
74310;BME280;62722;51.142;17.052;2022-10-26T09:31:00;100878.16;;;11.65;90.71
74310;BME280;62722;51.142;17.052;2022-10-26T09:33:30;100871.25;;;11.79;90.12
74310;BME280;62722;51.142;17.052;2022-10-26T09:36:02;100881.63;;;11.96;89.48
74310;BME280;62722;51.142;17.052;2022-10-26T09:38:31;100878.06;;;11.97;89.58
74310;BME280;62722;51.142;17.052;2022-10-26T09:41:03;100870.00;;;11.98;89.85
74310;BME280;62722;51.142;17.052;2022-10-26T09:43:37;100873.69;;;11.96;89.56
74310;BME280;62722;51.142;17.052;2022-10-26T09:46:09;100872.94;;;11.94;89.98
74310;BME280;62722;51.142;17.052;2022-10-26T09:48:42;100874.63;;;11.95;90.01
74310;BME280;62722;51.142;17.052;2022-10-26T09:51:12;100879.38;;;11.90;90.13
74310;BME280;62722;51.142;17.052;2022-10-26T09:53:41;100880.31;;;11.89;90.52
74310;BME280;62722;51.142;17.052;2022-10-26T09:56:10;100875.75;;;11.91;90.34
74310;BME280;62722;51.142;17.052;2022-10-26T09:58:43;100879.19;;;11.93;90.27
74310;BME280;62722;51.142;17.052;2022-10-26T10:01:20;100885.88;;;11.98;90.39
74310;BME280;62722;51.142;17.052;2022-10-26T10:04:08;100883.16;;;12.00;90.06
74310;BME280;62722;51.142;17.052;2022-10-26T10:06:36;100887.41;;;12.02;90.09
74310;BME280;62722;51.142;17.052;2022-10-26T10:09:05;100877.38;;;12.07;90.37
74310;BME280;62722;51.142;17.052;2022-10-26T10:11:39;100881.81;;;12.21;89.64
74310;BME280;62722;51.142;17.052;2022-10-26T10:14:14;100878.03;;;12.25;89.59
74310;BME280;62722;51.142;17.052;2022-10-26T10:16:49;100884.91;;;12.28;89.68
74310;BME280;62722;51.142;17.052;2022-10-26T10:19:21;100880.38;;;12.44;89.28
74310;BME280;62722;51.142;17.052;2022-10-26T10:21:50;100876.63;;;12.75;87.84
74310;BME280;62722;51.142;17.052;2022-10-26T10:24:22;100866.81;;;12.89;87.25
74310;BME280;62722;51.142;17.052;2022-10-26T10:26:58;100870.00;;;12.94;87.48
74310;BME280;62722;51.142;17.052;2022-10-26T10:29:28;100872.56;;;12.96;87.15
74310;BME280;62722;51.142;17.052;2022-10-26T10:31:57;100871.06;;;12.92;87.29
74310;BME280;62722;51.142;17.052;2022-10-26T10:34:25;100864.81;;;12.93;86.56
74310;BME280;62722;51.142;17.052;2022-10-26T10:36:53;100877.22;;;12.92;86.92
74310;BME280;62722;51.142;17.052;2022-10-26T10:39:33;100880.16;;;12.88;87.32
74310;BME280;62722;51.142;17.052;2022-10-26T10:42:02;100879.47;;;12.98;86.69
74310;BME280;62722;51.142;17.052;2022-10-26T10:44:32;100872.34;;;12.99;86.86
74310;BME280;62722;51.142;17.052;2022-10-26T10:47:00;100865.97;;;13.15;85.60
74310;BME280;62722;51.142;17.052;2022-10-26T10:49:29;100879.41;;;13.12;86.39
74310;BME280;62722;51.142;17.052;2022-10-26T10:51:57;100877.31;;;13.18;85.45
74310;BME280;62722;51.142;17.052;2022-10-26T10:54:28;100877.53;;;13.27;84.82
74310;BME280;62722;51.142;17.052;2022-10-26T10:57:04;100876.69;;;13.27;84.47
74310;BME280;62722;51.142;17.052;2022-10-26T10:59:44;100875.03;;;13.26;84.91
74310;BME280;62722;51.142;17.052;2022-10-26T11:02:49;100870.88;;;13.22;85.68
74310;BME280;62722;51.142;17.052;2022-10-26T11:05:22;100876.19;;;13.22;85.91
74310;BME280;62722;51.142;17.052;2022-10-26T11:07:54;100870.34;;;13.29;85.45
74310;BME280;62722;51.142;17.052;2022-10-26T11:10:26;100875.44;;;13.32;85.96
74310;BME280;62722;51.142;17.052;2022-10-26T11:12:58;100870.16;;;13.32;83.85
74310;BME280;62722;51.142;17.052;2022-10-26T11:15:30;100864.63;;;13.35;84.37
74310;BME280;62722;51.142;17.052;2022-10-26T11:18:04;100876.94;;;13.36;84.89
74310;BME280;62722;51.142;17.052;2022-10-26T11:20:38;100867.97;;;13.51;83.27
74310;BME280;62722;51.142;17.052;2022-10-26T11:23:10;100865.22;;;13.65;82.71
74310;BME280;62722;51.142;17.052;2022-10-26T11:25:45;100864.03;;;13.70;82.57
74310;BME280;62722;51.142;17.052;2022-10-26T11:28:16;100862.56;;;13.65;82.90
74310;BME280;62722;51.142;17.052;2022-10-26T11:30:51;100862.13;;;13.72;81.99
74310;BME280;62722;51.142;17.052;2022-10-26T11:33:24;100862.25;;;13.70;82.31
74310;BME280;62722;51.142;17.052;2022-10-26T11:35:53;100862.34;;;13.69;81.72
74310;BME280;62722;51.142;17.052;2022-10-26T11:38:28;100858.84;;;13.68;81.90
74310;BME280;62722;51.142;17.052;2022-10-26T11:41:02;100866.16;;;13.64;82.54
74310;BME280;62722;51.142;17.052;2022-10-26T11:43:37;100859.03;;;13.65;82.80
74310;BME280;62722;51.142;17.052;2022-10-26T11:46:11;100856.31;;;13.67;82.65
74310;BME280;62722;51.142;17.052;2022-10-26T11:48:44;100860.00;;;13.77;81.29
74310;BME280;62722;51.142;17.052;2022-10-26T11:51:17;100854.72;;;13.89;80.08
74310;BME280;62722;51.142;17.052;2022-10-26T11:53:46;100854.69;;;14.14;79.32
74310;BME280;62722;51.142;17.052;2022-10-26T11:56:24;100864.75;;;14.22;79.98
74310;BME280;62722;51.142;17.052;2022-10-26T11:58:53;100856.03;;;14.33;77.74
74310;BME280;62722;51.142;17.052;2022-10-26T12:01:24;100857.19;;;14.29;77.74
74310;BME280;62722;51.142;17.052;2022-10-26T12:03:56;100865.59;;;14.35;77.26
74310;BME280;62722;51.142;17.052;2022-10-26T12:06:29;100860.56;;;14.31;77.87
74310;BME280;62722;51.142;17.052;2022-10-26T12:09:02;100858.47;;;14.23;78.46
74310;BME280;62722;51.142;17.052;2022-10-26T12:11:37;100863.13;;;14.32;76.72
74310;BME280;62722;51.142;17.052;2022-10-26T12:14:16;100847.59;;;14.51;75.70
74310;BME280;62722;51.142;17.052;2022-10-26T12:16:55;100864.16;;;14.55;77.63
74310;BME280;62722;51.142;17.052;2022-10-26T12:19:27;100854.16;;;14.58;76.34
74310;BME280;62722;51.142;17.052;2022-10-26T12:21:55;100861.63;;;14.53;77.42
74310;BME280;62722;51.142;17.052;2022-10-26T12:24:25;100858.97;;;14.53;75.70
74310;BME280;62722;51.142;17.052;2022-10-26T12:26:54;100855.06;;;14.46;77.64
74310;BME280;62722;51.142;17.052;2022-10-26T12:32:51;100854.22;;;14.33;78.67
74310;BME280;62722;51.142;17.052;2022-10-26T12:35:36;100855.50;;;14.28;77.50
74310;BME280;62722;51.142;17.052;2022-10-26T12:41:22;100858.78;;;14.31;72.11
74310;BME280;62722;51.142;17.052;2022-10-26T12:43:54;100854.75;;;14.38;73.44
74310;BME280;62722;51.142;17.052;2022-10-26T12:46:40;100853.69;;;14.41;73.94
74310;BME280;62722;51.142;17.052;2022-10-26T13:07:20;100850.25;;;14.51;74.08
74310;BME280;62722;51.142;17.052;2022-10-26T13:09:59;100856.00;;;14.45;74.06
74310;BME280;62722;51.142;17.052;2022-10-26T13:12:34;100847.31;;;14.43;73.60
74310;BME280;62722;51.142;17.052;2022-10-26T13:15:04;100848.25;;;14.42;74.56
74310;BME280;62722;51.142;17.052;2022-10-26T13:17:32;100846.78;;;14.38;76.16
74310;BME280;62722;51.142;17.052;2022-10-26T13:20:02;100847.53;;;14.40;76.31
74310;BME280;62722;51.142;17.052;2022-10-26T13:22:30;100840.28;;;14.42;75.39
74310;BME280;62722;51.142;17.052;2022-10-26T13:25:00;100840.69;;;14.49;75.62
74310;BME280;62722;51.142;17.052;2022-10-26T13:27:43;100837.00;;;14.51;75.34
74310;BME280;62722;51.142;17.052;2022-10-26T13:33:16;100842.84;;;14.68;73.65